sensor_id;sensor_type;location;lat;lon;timestamp;pressure;altitude;pressure_sealevel;temperature;humidity
65758;BME280;52495;52.208;5.158;2023-02-21T00:00:54;101969.16;;;8.45;100.00
65758;BME280;52495;52.208;5.158;2023-02-21T00:03:38;101973.41;;;8.45;100.00
65758;BME280;52495;52.208;5.158;2023-02-21T00:06:22;101981.13;;;8.45;100.00
65758;BME280;52495;52.208;5.158;2023-02-21T00:09:08;101970.91;;;8.48;100.00
65758;BME280;52495;52.208;5.158;2023-02-21T00:11:52;101979.44;;;8.45;100.00
65758;BME280;52495;52.208;5.158;2023-02-21T00:14:36;101980.25;;;8.43;100.00
65758;BME280;52495;52.208;5.158;2023-02-21T00:17:21;101976.88;;;8.47;100.00
65758;BME280;52495;52.208;5.158;2023-02-21T00:20:05;101986.25;;;8.42;100.00
65758;BME280;52495;52.208;5.158;2023-02-21T00:22:50;101979.41;;;8.44;100.00
65758;BME280;52495;52.208;5.158;2023-02-21T00:25:35;101981.13;;;8.45;100.00
65758;BME280;52495;52.208;5.158;2023-02-21T00:28:19;101985.53;;;8.52;100.00
65758;BME280;52495;52.208;5.158;2023-02-21T00:31:04;101983.81;;;8.51;100.00
65758;BME280;52495;52.208;5.158;2023-02-21T00:33:50;101988.00;;;8.44;100.00
65758;BME280;52495;52.208;5.158;2023-02-21T00:36:34;101988.84;;;8.45;100.00
65758;BME280;52495;52.208;5.158;2023-02-21T00:39:19;101987.16;;;8.47;100.00
65758;BME280;52495;52.208;5.158;2023-02-21T00:42:04;101986.34;;;8.48;100.00
65758;BME280;52495;52.208;5.158;2023-02-21T00:44:49;101983.78;;;8.48;100.00
65758;BME280;52495;52.208;5.158;2023-02-21T00:47:33;101986.38;;;8.51;100.00
65758;BME280;52495;52.208;5.158;2023-02-21T00:50:18;101975.97;;;8.46;100.00
65758;BME280;52495;52.208;5.158;2023-02-21T00:53:02;101963.97;;;8.44;100.00
65758;BME280;52495;52.208;5.158;2023-02-21T00:55:46;101971.66;;;8.41;100.00
65758;BME280;52495;52.208;5.158;2023-02-21T00:58:32;101957.94;;;8.42;100.00
65758;BME280;52495;52.208;5.158;2023-02-21T01:01:16;101961.34;;;8.39;100.00
65758;BME280;52495;52.208;5.158;2023-02-21T01:04:00;101960.50;;;8.42;100.00
65758;BME280;52495;52.208;5.158;2023-02-21T01:06:45;101958.78;;;8.39;100.00
65758;BME280;52495;52.208;5.158;2023-02-21T01:09:29;101949.38;;;8.41;100.00
65758;BME280;52495;52.208;5.158;2023-02-21T01:12:13;101954.53;;;8.46;100.00
65758;BME280;52495;52.208;5.158;2023-02-21T01:14:58;101957.13;;;8.46;100.00
65758;BME280;52495;52.208;5.158;2023-02-21T01:17:42;101959.69;;;8.46;100.00
65758;BME280;52495;52.208;5.158;2023-02-21T01:20:26;101951.97;;;8.47;100.00
65758;BME280;52495;52.208;5.158;2023-02-21T01:23:11;101954.53;;;8.46;100.00
65758;BME280;52495;52.208;5.158;2023-02-21T01:25:55;101958.03;;;8.48;100.00
65758;BME280;52495;52.208;5.158;2023-02-21T01:28:39;101952.88;;;8.48;100.00
65758;BME280;52495;52.208;5.158;2023-02-21T01:31:24;101943.47;;;8.50;100.00
65758;BME280;52495;52.208;5.158;2023-02-21T01:34:09;101935.69;;;8.47;100.00
65758;BME280;52495;52.208;5.158;2023-02-21T01:36:53;101940.78;;;8.44;100.00
65758;BME280;52495;52.208;5.158;2023-02-21T01:39:37;101928.78;;;8.41;100.00
65758;BME280;52495;52.208;5.158;2023-02-21T01:42:22;101927.91;;;8.41;100.00
65758;BME280;52495;52.208;5.158;2023-02-21T01:45:39;101938.22;;;8.42;100.00
65758;BME280;52495;52.208;5.158;2023-02-21T01:48:28;101933.97;;;8.46;100.00
65758;BME280;52495;52.208;5.158;2023-02-21T01:51:15;101926.25;;;8.46;100.00
65758;BME280;52495;52.208;5.158;2023-02-21T01:54:00;101935.63;;;8.41;100.00
65758;BME280;52495;52.208;5.158;2023-02-21T01:56:45;101945.09;;;8.43;100.00
65758;BME280;52495;52.208;5.158;2023-02-21T01:59:30;101934.81;;;8.45;100.00
65758;BME280;52495;52.208;5.158;2023-02-21T02:02:18;101931.34;;;8.43;100.00
65758;BME280;52495;52.208;5.158;2023-02-21T02:05:08;101922.72;;;8.38;100.00
65758;BME280;52495;52.208;5.158;2023-02-21T02:07:54;101925.34;;;8.44;100.00
65758;BME280;52495;52.208;5.158;2023-02-21T02:10:39;101917.66;;;8.45;100.00
65758;BME280;52495;52.208;5.158;2023-02-21T02:13:48;101918.50;;;8.47;100.00
65758;BME280;52495;52.208;5.158;2023-02-21T02:16:27;101913.34;;;8.43;100.00
65758;BME280;52495;52.208;5.158;2023-02-21T02:19:04;101913.38;;;8.44;100.00
65758;BME280;52495;52.208;5.158;2023-02-21T02:24:52;101915.03;;;8.41;100.00
65758;BME280;52495;52.208;5.158;2023-02-21T02:27:53;101907.34;;;8.42;100.00
65758;BME280;52495;52.208;5.158;2023-02-21T02:30:44;101907.34;;;8.42;100.00
65758;BME280;52495;52.208;5.158;2023-02-21T02:33:47;101907.34;;;8.44;100.00
65758;BME280;52495;52.208;5.158;2023-02-21T02:36:20;101906.47;;;8.42;100.00
65758;BME280;52495;52.208;5.158;2023-02-21T02:38:57;101908.16;;;8.37;100.00
65758;BME280;52495;52.208;5.158;2023-02-21T02:41:32;101905.56;;;8.37;100.00
65758;BME280;52495;52.208;5.158;2023-02-21T02:44:10;101904.69;;;8.38;100.00
65758;BME280;52495;52.208;5.158;2023-02-21T02:46:42;101908.16;;;8.38;100.00
65758;BME280;52495;52.208;5.158;2023-02-21T02:49:14;101916.72;;;8.35;100.00
65758;BME280;52495;52.208;5.158;2023-02-21T02:51:44;101906.50;;;8.43;100.00
65758;BME280;52495;52.208;5.158;2023-02-21T02:54:11;101909.91;;;8.44;100.00
65758;BME280;52495;52.208;5.158;2023-02-21T02:56:39;101913.38;;;8.44;100.00
65758;BME280;52495;52.208;5.158;2023-02-21T02:59:09;101909.94;;;8.47;100.00
65758;BME280;52495;52.208;5.158;2023-02-21T03:01:53;101911.59;;;8.42;100.00
65758;BME280;52495;52.208;5.158;2023-02-21T03:04:35;101918.50;;;8.46;100.00
65758;BME280;52495;52.208;5.158;2023-02-21T03:07:12;101917.66;;;8.45;100.00
65758;BME280;52495;52.208;5.158;2023-02-21T03:09:50;101918.50;;;8.44;100.00
65758;BME280;52495;52.208;5.158;2023-02-21T03:12:34;101915.06;;;8.44;100.00
65758;BME280;52495;52.208;5.158;2023-02-21T03:15:07;101909.06;;;8.46;100.00
65758;BME280;52495;52.208;5.158;2023-02-21T03:17:41;101907.44;;;8.50;100.00
65758;BME280;52495;52.208;5.158;2023-02-21T03:20:16;101907.31;;;8.41;100.00
65758;BME280;52495;52.208;5.158;2023-02-21T03:22:45;101910.78;;;8.47;100.00
65758;BME280;52495;52.208;5.158;2023-02-21T03:25:14;101910.84;;;8.49;100.00
65758;BME280;52495;52.208;5.158;2023-02-21T03:27:46;101909.16;;;8.51;100.00
65758;BME280;52495;52.208;5.158;2023-02-21T03:30:21;101909.16;;;8.51;100.00
65758;BME280;52495;52.208;5.158;2023-02-21T03:32:51;101898.03;;;8.52;100.00
65758;BME280;52495;52.208;5.158;2023-02-21T03:35:21;101908.31;;;8.52;100.00
65758;BME280;52495;52.208;5.158;2023-02-21T03:37:51;101897.19;;;8.56;100.00
65758;BME280;52495;52.208;5.158;2023-02-21T03:40:25;101897.22;;;8.58;100.00
65758;BME280;52495;52.208;5.158;2023-02-21T03:42:56;101897.22;;;8.59;100.00
65758;BME280;52495;52.208;5.158;2023-02-21T03:45:24;101903.22;;;8.60;100.00
65758;BME280;52495;52.208;5.158;2023-02-21T03:48:05;101908.38;;;8.63;100.00
65758;BME280;52495;52.208;5.158;2023-02-21T03:50:34;101899.00;;;8.68;100.00
65758;BME280;52495;52.208;5.158;2023-02-21T03:53:03;101901.56;;;8.67;100.00
65758;BME280;52495;52.208;5.158;2023-02-21T03:55:31;101893.84;;;8.67;100.00
65758;BME280;52495;52.208;5.158;2023-02-21T03:58:02;101889.56;;;8.70;100.00
65758;BME280;52495;52.208;5.158;2023-02-21T04:00:31;101886.13;;;8.68;100.00
65758;BME280;52495;52.208;5.158;2023-02-21T04:02:59;101884.41;;;8.65;100.00
65758;BME280;52495;52.208;5.158;2023-02-21T04:05:33;101887.81;;;8.64;100.00
65758;BME280;52495;52.208;5.158;2023-02-21T04:08:00;101883.50;;;8.65;100.00
65758;BME280;52495;52.208;5.158;2023-02-21T04:10:29;101892.09;;;8.62;100.00
65758;BME280;52495;52.208;5.158;2023-02-21T04:12:57;101898.13;;;8.64;100.00
65758;BME280;52495;52.208;5.158;2023-02-21T04:15:24;101897.25;;;8.65;100.00
65758;BME280;52495;52.208;5.158;2023-02-21T04:17:55;101889.53;;;8.65;100.00
65758;BME280;52495;52.208;5.158;2023-02-21T04:20:22;101889.50;;;8.61;100.00
65758;BME280;52495;52.208;5.158;2023-02-21T04:22:52;101886.03;;;8.57;100.00
65758;BME280;52495;52.208;5.158;2023-02-21T04:25:21;101887.75;;;8.58;100.00
65758;BME280;52495;52.208;5.158;2023-02-21T04:27:54;101878.34;;;8.59;100.00
65758;BME280;52495;52.208;5.158;2023-02-21T04:30:21;101886.94;;;8.62;100.00
65758;BME280;52495;52.208;5.158;2023-02-21T04:32:49;101889.53;;;8.65;100.00
65758;BME280;52495;52.208;5.158;2023-02-21T04:35:19;101886.09;;;8.65;100.00
65758;BME280;52495;52.208;5.158;2023-02-21T04:37:47;101888.66;;;8.62;100.00
65758;BME280;52495;52.208;5.158;2023-02-21T04:40:14;101879.25;;;8.67;100.00
65758;BME280;52495;52.208;5.158;2023-02-21T04:42:42;101883.53;;;8.68;100.00
65758;BME280;52495;52.208;5.158;2023-02-21T04:45:11;101886.94;;;8.64;100.00
65758;BME280;52495;52.208;5.158;2023-02-21T04:47:38;101880.94;;;8.62;100.00
65758;BME280;52495;52.208;5.158;2023-02-21T04:50:05;101891.25;;;8.63;100.00
65758;BME280;52495;52.208;5.158;2023-02-21T04:52:33;101874.06;;;8.62;100.00
65758;BME280;52495;52.208;5.158;2023-02-21T04:54:59;101878.34;;;8.60;100.00
65758;BME280;52495;52.208;5.158;2023-02-21T04:57:26;101878.38;;;8.62;100.00
65758;BME280;52495;52.208;5.158;2023-02-21T04:59:57;101880.06;;;8.63;100.00
65758;BME280;52495;52.208;5.158;2023-02-21T05:02:26;101879.22;;;8.64;100.00
65758;BME280;52495;52.208;5.158;2023-02-21T05:04:53;101880.97;;;8.67;100.00
65758;BME280;52495;52.208;5.158;2023-02-21T05:07:20;101887.00;;;8.69;100.00
65758;BME280;52495;52.208;5.158;2023-02-21T05:09:47;101884.41;;;8.72;100.00
65758;BME280;52495;52.208;5.158;2023-02-21T05:12:15;101875.84;;;8.70;100.00
65758;BME280;52495;52.208;5.158;2023-02-21T05:14:42;101876.69;;;8.69;100.00
65758;BME280;52495;52.208;5.158;2023-02-21T05:17:09;101878.41;;;8.68;100.00
65758;BME280;52495;52.208;5.158;2023-02-21T05:19:37;101882.66;;;8.66;100.00
65758;BME280;52495;52.208;5.158;2023-02-21T05:22:04;101880.09;;;8.66;100.00
65758;BME280;52495;52.208;5.158;2023-02-21T05:24:33;101885.25;;;8.66;100.00
65758;BME280;52495;52.208;5.158;2023-02-21T05:27:00;101881.78;;;8.62;100.00
65758;BME280;52495;52.208;5.158;2023-02-21T05:29:27;101882.63;;;8.61;100.00
65758;BME280;52495;52.208;5.158;2023-02-21T05:31:54;101883.50;;;8.60;100.00
65758;BME280;52495;52.208;5.158;2023-02-21T05:34:21;101886.06;;;8.60;100.00
65758;BME280;52495;52.208;5.158;2023-02-21T05:36:49;101887.78;;;8.61;100.00
65758;BME280;52495;52.208;5.158;2023-02-21T05:39:17;101900.63;;;8.58;100.00
65758;BME280;52495;52.208;5.158;2023-02-21T05:41:48;101899.81;;;8.62;100.00
65758;BME280;52495;52.208;5.158;2023-02-21T05:44:15;101893.81;;;8.62;100.00
65758;BME280;52495;52.208;5.158;2023-02-21T05:46:42;101889.50;;;8.64;100.00
65758;BME280;52495;52.208;5.158;2023-02-21T05:49:11;101882.63;;;8.61;100.00
65758;BME280;52495;52.208;5.158;2023-02-21T05:51:41;101883.50;;;8.59;100.00
65758;BME280;52495;52.208;5.158;2023-02-21T05:54:14;101893.81;;;8.62;100.00
65758;BME280;52495;52.208;5.158;2023-02-21T05:56:42;101898.09;;;8.61;100.00
65758;BME280;52495;52.208;5.158;2023-02-21T05:59:09;101901.53;;;8.62;100.00
65758;BME280;52495;52.208;5.158;2023-02-21T06:01:36;101911.00;;;8.64;100.00
65758;BME280;52495;52.208;5.158;2023-02-21T06:04:04;101905.00;;;8.65;100.00
65758;BME280;52495;52.208;5.158;2023-02-21T06:06:32;101897.25;;;8.65;100.00
65758;BME280;52495;52.208;5.158;2023-02-21T06:08:59;101901.53;;;8.65;100.00
65758;BME280;52495;52.208;5.158;2023-02-21T06:11:30;101903.22;;;8.61;100.00
65758;BME280;52495;52.208;5.158;2023-02-21T06:13:59;101906.66;;;8.60;100.00
65758;BME280;52495;52.208;5.158;2023-02-21T06:16:31;101911.81;;;8.60;100.00
65758;BME280;52495;52.208;5.158;2023-02-21T06:18:59;101901.47;;;8.57;100.00
65758;BME280;52495;52.208;5.158;2023-02-21T06:21:26;101898.97;;;8.62;100.00
65758;BME280;52495;52.208;5.158;2023-02-21T06:23:53;101892.94;;;8.61;100.00
65758;BME280;52495;52.208;5.158;2023-02-21T06:26:20;101898.97;;;8.63;100.00
65758;BME280;52495;52.208;5.158;2023-02-21T06:28:49;101899.00;;;8.67;100.00
65758;BME280;52495;52.208;5.158;2023-02-21T06:31:16;101893.88;;;8.70;100.00
65758;BME280;52495;52.208;5.158;2023-02-21T06:33:43;101894.72;;;8.69;100.00
65758;BME280;52495;52.208;5.158;2023-02-21T06:36:12;101902.41;;;8.67;100.00
65758;BME280;52495;52.208;5.158;2023-02-21T06:38:39;101905.03;;;8.69;100.00
65758;BME280;52495;52.208;5.158;2023-02-21T06:41:06;101909.31;;;8.70;100.00
65758;BME280;52495;52.208;5.158;2023-02-21T06:43:34;101915.31;;;8.70;100.00
65758;BME280;52495;52.208;5.158;2023-02-21T06:46:03;101912.75;;;8.69;100.00
65758;BME280;52495;52.208;5.158;2023-02-21T06:48:30;101915.31;;;8.70;100.00
65758;BME280;52495;52.208;5.158;2023-02-21T06:50:57;101909.31;;;8.70;100.00
65758;BME280;52495;52.208;5.158;2023-02-21T06:53:24;101905.00;;;8.67;100.00
65758;BME280;52495;52.208;5.158;2023-02-21T06:55:51;101902.41;;;8.65;100.00
65758;BME280;52495;52.208;5.158;2023-02-21T06:58:18;101911.03;;;8.68;100.00
65758;BME280;52495;52.208;5.158;2023-02-21T07:00:45;101911.88;;;8.68;100.00
65758;BME280;52495;52.208;5.158;2023-02-21T07:03:13;101916.13;;;8.66;100.00
65758;BME280;52495;52.208;5.158;2023-02-21T07:05:40;101906.69;;;8.65;100.00
65758;BME280;52495;52.208;5.158;2023-02-21T07:08:07;101917.00;;;8.67;100.00
65758;BME280;52495;52.208;5.158;2023-02-21T07:10:34;101909.28;;;8.68;100.00
65758;BME280;52495;52.208;5.158;2023-02-21T07:13:01;101912.75;;;8.69;100.00
65758;BME280;52495;52.208;5.158;2023-02-21T07:15:28;101911.91;;;8.70;100.00
65758;BME280;52495;52.208;5.158;2023-02-21T07:17:55;101902.44;;;8.69;100.00
65758;BME280;52495;52.208;5.158;2023-02-21T07:20:24;101904.16;;;8.67;100.00
65758;BME280;52495;52.208;5.158;2023-02-21T07:22:51;101900.69;;;8.64;100.00
65758;BME280;52495;52.208;5.158;2023-02-21T07:25:21;101899.81;;;8.62;100.00
65758;BME280;52495;52.208;5.158;2023-02-21T07:27:48;101902.38;;;8.62;100.00
65758;BME280;52495;52.208;5.158;2023-02-21T07:30:17;101909.22;;;8.59;100.00
65758;BME280;52495;52.208;5.158;2023-02-21T07:32:44;101912.69;;;8.64;100.00
65758;BME280;52495;52.208;5.158;2023-02-21T07:35:11;101910.13;;;8.67;100.00
65758;BME280;52495;52.208;5.158;2023-02-21T07:37:40;101912.75;;;8.69;100.00
65758;BME280;52495;52.208;5.158;2023-02-21T07:40:08;101916.19;;;8.71;100.00
65758;BME280;52495;52.208;5.158;2023-02-21T07:42:34;101907.56;;;8.67;100.00
65758;BME280;52495;52.208;5.158;2023-02-21T07:45:01;101907.59;;;8.72;100.00
65758;BME280;52495;52.208;5.158;2023-02-21T07:47:28;101908.50;;;8.75;100.00
65758;BME280;52495;52.208;5.158;2023-02-21T07:49:55;101909.38;;;8.77;100.00
65758;BME280;52495;52.208;5.158;2023-02-21T07:52:24;101912.84;;;8.81;100.00
65758;BME280;52495;52.208;5.158;2023-02-21T07:54:53;101911.09;;;8.80;100.00
65758;BME280;52495;52.208;5.158;2023-02-21T07:57:20;101916.28;;;8.83;100.00
65758;BME280;52495;52.208;5.158;2023-02-21T07:59:47;101919.72;;;8.84;100.00
65758;BME280;52495;52.208;5.158;2023-02-21T08:02:14;101918.88;;;8.86;100.00
65758;BME280;52495;52.208;5.158;2023-02-21T08:04:41;101922.31;;;8.88;100.00
65758;BME280;52495;52.208;5.158;2023-02-21T08:07:08;101922.31;;;8.88;100.00
65758;BME280;52495;52.208;5.158;2023-02-21T08:09:35;101924.06;;;8.91;100.00
65758;BME280;52495;52.208;5.158;2023-02-21T08:12:04;101923.19;;;8.90;100.00
65758;BME280;52495;52.208;5.158;2023-02-21T08:14:31;101924.06;;;8.91;100.00
65758;BME280;52495;52.208;5.158;2023-02-21T08:16:58;101924.06;;;8.92;100.00
65758;BME280;52495;52.208;5.158;2023-02-21T08:19:25;101931.81;;;8.95;100.00
65758;BME280;52495;52.208;5.158;2023-02-21T08:21:52;101926.66;;;8.95;100.00
65758;BME280;52495;52.208;5.158;2023-02-21T08:24:19;101924.97;;;8.98;100.00
65758;BME280;52495;52.208;5.158;2023-02-21T08:26:46;101928.38;;;8.98;100.00
65758;BME280;52495;52.208;5.158;2023-02-21T08:29:14;101930.97;;;8.96;100.00
65758;BME280;52495;52.208;5.158;2023-02-21T08:31:42;101924.97;;;8.96;100.00
65758;BME280;52495;52.208;5.158;2023-02-21T08:34:10;101927.53;;;8.96;100.00
65758;BME280;52495;52.208;5.158;2023-02-21T08:36:39;101923.25;;;8.96;100.00
65758;BME280;52495;52.208;5.158;2023-02-21T08:39:07;101922.38;;;8.99;100.00
65758;BME280;52495;52.208;5.158;2023-02-21T08:41:36;101915.53;;;9.01;100.00
65758;BME280;52495;52.208;5.158;2023-02-21T08:44:03;101916.41;;;9.03;100.00
65758;BME280;52495;52.208;5.158;2023-02-21T08:46:32;101907.84;;;9.04;100.00
65758;BME280;52495;52.208;5.158;2023-02-21T08:48:58;101912.09;;;9.02;100.00
65758;BME280;52495;52.208;5.158;2023-02-21T08:51:26;101913.84;;;9.02;100.00
65758;BME280;52495;52.208;5.158;2023-02-21T08:53:53;101911.25;;;9.03;100.00
65758;BME280;52495;52.208;5.158;2023-02-21T08:56:20;101914.69;;;9.01;100.00
65758;BME280;52495;52.208;5.158;2023-02-21T08:58:47;101913.81;;;9.00;100.00
65758;BME280;52495;52.208;5.158;2023-02-21T09:01:15;101908.69;;;9.02;100.00
65758;BME280;52495;52.208;5.158;2023-02-21T09:03:43;101911.22;;;8.97;100.00
65758;BME280;52495;52.208;5.158;2023-02-21T09:06:10;101906.94;;;8.98;100.00
65758;BME280;52495;52.208;5.158;2023-02-21T09:08:37;101911.25;;;9.02;100.00
65758;BME280;52495;52.208;5.158;2023-02-21T09:11:05;101909.53;;;9.02;100.00
65758;BME280;52495;52.208;5.158;2023-02-21T09:13:32;101906.13;;;9.02;100.00
65758;BME280;52495;52.208;5.158;2023-02-21T09:16:00;101898.38;;;9.02;100.00
65758;BME280;52495;52.208;5.158;2023-02-21T09:18:28;101896.66;;;9.02;100.00
65758;BME280;52495;52.208;5.158;2023-02-21T09:20:57;101898.38;;;9.03;100.00
65758;BME280;52495;52.208;5.158;2023-02-21T09:23:26;101902.72;;;9.07;100.00
65758;BME280;52495;52.208;5.158;2023-02-21T09:25:53;101900.13;;;9.07;100.00
65758;BME280;52495;52.208;5.158;2023-02-21T09:28:21;101895.00;;;9.12;100.00
65758;BME280;52495;52.208;5.158;2023-02-21T09:30:48;101891.56;;;9.11;100.00
65758;BME280;52495;52.208;5.158;2023-02-21T09:33:16;101897.56;;;9.12;100.00
65758;BME280;52495;52.208;5.158;2023-02-21T09:35:43;101883.84;;;9.15;100.00
65758;BME280;52495;52.208;5.158;2023-02-21T09:38:11;101880.41;;;9.13;100.00
65758;BME280;52495;52.208;5.158;2023-02-21T09:40:41;101876.94;;;9.09;100.00
65758;BME280;52495;52.208;5.158;2023-02-21T09:43:13;101877.78;;;9.08;100.00
65758;BME280;52495;52.208;5.158;2023-02-21T09:45:41;101879.50;;;9.09;100.00
65758;BME280;52495;52.208;5.158;2023-02-21T09:48:14;101876.91;;;9.06;100.00
65758;BME280;52495;52.208;5.158;2023-02-21T09:50:45;101878.66;;;9.07;100.00
65758;BME280;52495;52.208;5.158;2023-02-21T09:53:18;101874.31;;;9.01;100.00
65758;BME280;52495;52.208;5.158;2023-02-21T09:55:47;101871.75;;;9.06;100.00
65758;BME280;52495;52.208;5.158;2023-02-21T09:58:18;101873.47;;;9.01;100.00
65758;BME280;52495;52.208;5.158;2023-02-21T10:00:46;101868.31;;;9.02;100.00
65758;BME280;52495;52.208;5.158;2023-02-21T10:03:23;101878.66;;;9.08;100.00
65758;BME280;52495;52.208;5.158;2023-02-21T10:05:56;101870.06;;;9.08;100.00
65758;BME280;52495;52.208;5.158;2023-02-21T10:08:31;101870.09;;;9.09;100.00
65758;BME280;52495;52.208;5.158;2023-02-21T10:11:13;101864.09;;;9.10;100.00
65758;BME280;52495;52.208;5.158;2023-02-21T10:13:51;101862.34;;;9.11;100.00
65758;BME280;52495;52.208;5.158;2023-02-21T10:16:23;101857.22;;;9.16;100.00
65758;BME280;52495;52.208;5.158;2023-02-21T10:19:02;101859.78;;;9.16;100.00
65758;BME280;52495;52.208;5.158;2023-02-21T10:21:33;101862.34;;;9.11;100.00
65758;BME280;52495;52.208;5.158;2023-02-21T10:24:10;101867.53;;;9.14;100.00
65758;BME280;52495;52.208;5.158;2023-02-21T10:26:39;101870.97;;;9.18;100.00
65758;BME280;52495;52.208;5.158;2023-02-21T10:29:19;101873.59;;;9.19;100.00
65758;BME280;52495;52.208;5.158;2023-02-21T10:31:48;101871.88;;;9.23;100.00
65758;BME280;52495;52.208;5.158;2023-02-21T10:34:22;101873.56;;;9.21;100.00
65758;BME280;52495;52.208;5.158;2023-02-21T10:36:51;101872.72;;;9.23;100.00
65758;BME280;52495;52.208;5.158;2023-02-21T10:39:21;101865.84;;;9.25;100.00
65758;BME280;52495;52.208;5.158;2023-02-21T10:41:51;101868.44;;;9.24;100.00
65758;BME280;52495;52.208;5.158;2023-02-21T10:44:21;101867.59;;;9.30;100.00
65758;BME280;52495;52.208;5.158;2023-02-21T10:46:53;101871.94;;;9.34;100.00
65758;BME280;52495;52.208;5.158;2023-02-21T10:49:23;101871.94;;;9.38;100.00
65758;BME280;52495;52.208;5.158;2023-02-21T10:52:04;101872.78;;;9.37;100.00
65758;BME280;52495;52.208;5.158;2023-02-21T10:54:32;101871.09;;;9.43;100.00
65758;BME280;52495;52.208;5.158;2023-02-21T10:57:00;101868.53;;;9.44;100.00
65758;BME280;52495;52.208;5.158;2023-02-21T10:59:31;101873.69;;;9.47;100.00
65758;BME280;52495;52.208;5.158;2023-02-21T11:02:00;101865.97;;;9.50;100.00
65758;BME280;52495;52.208;5.158;2023-02-21T11:04:29;101878.03;;;9.51;100.00
65758;BME280;52495;52.208;5.158;2023-02-21T11:07:01;101881.41;;;9.44;100.00
65758;BME280;52495;52.208;5.158;2023-02-21T11:09:35;101867.66;;;9.45;100.00
65758;BME280;52495;52.208;5.158;2023-02-21T11:12:06;101869.41;;;9.49;100.00
65758;BME280;52495;52.208;5.158;2023-02-21T11:14:42;101866.84;;;9.52;100.00
65758;BME280;52495;52.208;5.158;2023-02-21T11:17:15;101868.59;;;9.58;100.00
65758;BME280;52495;52.208;5.158;2023-02-21T11:19:50;101865.16;;;9.59;100.00
65758;BME280;52495;52.208;5.158;2023-02-21T11:22:21;101867.69;;;9.48;100.00
65758;BME280;52495;52.208;5.158;2023-02-21T11:24:58;101866.00;;;9.55;100.00
65758;BME280;52495;52.208;5.158;2023-02-21T11:27:27;101861.69;;;9.59;100.00
65758;BME280;52495;52.208;5.158;2023-02-21T11:29:55;101860.00;;;9.61;100.00
65758;BME280;52495;52.208;5.158;2023-02-21T11:32:26;101854.00;;;9.60;100.00
65758;BME280;52495;52.208;5.158;2023-02-21T11:35:06;101852.28;;;9.64;100.00
65758;BME280;52495;52.208;5.158;2023-02-21T11:37:46;101846.25;;;9.62;100.00
65758;BME280;52495;52.208;5.158;2023-02-21T11:40:30;101850.50;;;9.46;100.00
65758;BME280;52495;52.208;5.158;2023-02-21T11:43:21;101853.97;;;9.54;100.00
65758;BME280;52495;52.208;5.158;2023-02-21T11:46:17;101852.25;;;9.59;100.00
65758;BME280;52495;52.208;5.158;2023-02-21T11:48:54;101854.84;;;9.62;100.00
65758;BME280;52495;52.208;5.158;2023-02-21T11:51:33;101851.38;;;9.54;100.00
65758;BME280;52495;52.208;5.158;2023-02-21T11:54:02;101846.22;;;9.52;100.00
65758;BME280;52495;52.208;5.158;2023-02-21T11:56:51;101843.63;;;9.46;100.00
65758;BME280;52495;52.208;5.158;2023-02-21T11:59:35;101847.06;;;9.44;100.00
65758;BME280;52495;52.208;5.158;2023-02-21T12:02:44;101849.63;;;9.39;100.00
65758;BME280;52495;52.208;5.158;2023-02-21T12:05:24;101847.91;;;9.43;100.00
65758;BME280;52495;52.208;5.158;2023-02-21T12:08:13;101848.75;;;9.43;100.00
65758;BME280;52495;52.208;5.158;2023-02-21T12:10:50;101837.56;;;9.41;100.00
65758;BME280;52495;52.208;5.158;2023-02-21T12:13:34;101836.72;;;9.40;100.00
65758;BME280;52495;52.208;5.158;2023-02-21T12:16:09;101839.31;;;9.40;100.00
65758;BME280;52495;52.208;5.158;2023-02-21T12:18:48;101835.00;;;9.39;100.00
65758;BME280;52495;52.208;5.158;2023-02-21T12:21:42;101837.59;;;9.38;100.00
65758;BME280;52495;52.208;5.158;2023-02-21T12:24:24;101834.13;;;9.37;100.00
65758;BME280;52495;52.208;5.158;2023-02-21T12:26:56;101831.56;;;9.37;100.00
65758;BME280;52495;52.208;5.158;2023-02-21T12:29:38;101829.84;;;9.38;100.00
65758;BME280;52495;52.208;5.158;2023-02-21T12:32:19;101829.84;;;9.38;100.00
65758;BME280;52495;52.208;5.158;2023-02-21T12:35:17;101827.25;;;9.41;100.00
65758;BME280;52495;52.208;5.158;2023-02-21T12:37:53;101824.69;;;9.39;100.00
65758;BME280;52495;52.208;5.158;2023-02-21T12:40:27;101831.59;;;9.39;100.00
65758;BME280;52495;52.208;5.158;2023-02-21T12:43:03;101821.28;;;9.44;100.00
65758;BME280;52495;52.208;5.158;2023-02-21T12:45:51;101819.56;;;9.47;100.00
65758;BME280;52495;52.208;5.158;2023-02-21T12:48:28;101813.56;;;9.48;100.00
65758;BME280;52495;52.208;5.158;2023-02-21T12:50:59;101809.28;;;9.50;100.00
65758;BME280;52495;52.208;5.158;2023-02-21T12:53:34;101817.84;;;9.49;100.00
65758;BME280;52495;52.208;5.158;2023-02-21T12:56:05;101817.00;;;9.50;100.00
65758;BME280;52495;52.208;5.158;2023-02-21T12:58:39;101807.56;;;9.48;100.00
65758;BME280;52495;52.208;5.158;2023-02-21T13:01:15;101809.28;;;9.53;100.00
65758;BME280;52495;52.208;5.158;2023-02-21T13:03:52;101805.84;;;9.57;100.00
65758;BME280;52495;52.208;5.158;2023-02-21T13:06:26;101798.09;;;9.57;100.00
65758;BME280;52495;52.208;5.158;2023-02-21T13:09:05;101799.84;;;9.55;100.00
65758;BME280;52495;52.208;5.158;2023-02-21T13:11:36;101798.97;;;9.55;100.00
65758;BME280;52495;52.208;5.158;2023-02-21T13:14:09;101801.53;;;9.55;100.00
65758;BME280;52495;52.208;5.158;2023-02-21T13:16:38;101804.97;;;9.54;100.00
65758;BME280;52495;52.208;5.158;2023-02-21T13:19:08;101792.91;;;9.50;100.00
65758;BME280;52495;52.208;5.158;2023-02-21T13:21:56;101795.53;;;9.51;100.00
65758;BME280;52495;52.208;5.158;2023-02-21T13:24:37;101792.97;;;9.54;100.00
65758;BME280;52495;52.208;5.158;2023-02-21T13:30:11;101785.22;;;9.54;100.00